Time;durP1;ratioP1;P1;durP2;ratioP2;P2;SDS_P1;SDS_P2;PMS_P1;PMS_P2;Temp;Humidity;BMP_temperature;BMP_pressure;BME280_temperature;BME280_humidity;BME280_pressure;Samples;Min_cycle;Max_cycle;Signal;HPM_P1;HPM_P2
2022/10/27 00:02:09;;;;;;;;;;;;;;;21.54;63.03;101403.34;7282013;19;154324;-58
2022/10/27 00:04:39;;;;;;;;;;;;;;;21.55;62.58;101407.81;7282465;19;153540;-58
2022/10/27 00:07:07;;;;;;;;;;;;;;;21.54;62.89;101405.31;7279215;19;152564;-59
2022/10/27 00:09:33;;;;;;;;;;;;;;;21.53;62.85;101398.84;7282360;19;152793;-58
2022/10/27 00:12:00;;;;;;;;;;;;;;;21.51;63.05;101398.31;7277843;19;153835;-59
2022/10/27 00:14:27;;;;;;;;;;;;;;;21.49;63.30;101392.16;7281136;19;151890;-59
2022/10/27 00:16:54;;;;;;;;;;;;;;;21.50;62.84;101399.47;7288671;19;152537;-58
2022/10/27 00:19:23;;;;;;;;;;;;;;;21.50;62.89;101404.25;7283112;19;152852;-59
2022/10/27 00:21:50;;;;;;;;;;;;;;;21.49;63.28;101406.22;7283249;19;153569;-58
2022/10/27 00:24:18;;;;;;;;;;;;;;;21.49;62.92;101409.03;7280710;19;153449;-58
2022/10/27 00:26:44;;;;;;;;;;;;;;;21.49;62.81;101406.22;7278814;19;152766;-58
2022/10/27 00:29:11;;;;;;;;;;;;;;;21.48;63.02;101412.16;7278895;19;154544;-58
2022/10/27 00:31:38;;;;;;;;;;;;;;;21.47;63.49;101404.88;7277435;19;154241;-58
2022/10/27 00:34:05;;;;;;;;;;;;;;;21.47;63.04;101408.50;7280090;19;151859;-59
2022/10/27 00:36:32;;;;;;;;;;;;;;;21.47;63.08;101400.06;7280854;19;152806;-58
2022/10/27 00:38:59;;;;;;;;;;;;;;;21.48;63.32;101400.91;7286836;19;152396;-58
2022/10/27 00:41:35;;;;;;;;;;;;;;;21.48;63.02;101392.47;7281302;19;153099;-58
2022/10/27 00:44:27;;;;;;;;;;;;;;;21.48;63.57;101395.28;7280563;19;152765;-58
2022/10/27 00:46:53;;;;;;;;;;;;;;;21.47;63.16;101391.66;7280104;19;152691;-58
2022/10/27 00:49:29;;;;;;;;;;;;;;;21.46;63.42;101380.69;7279314;19;153305;-58
2022/10/27 00:51:57;;;;;;;;;;;;;;;21.47;63.30;101394.44;7278962;19;155451;-58
2022/10/27 00:54:27;;;;;;;;;;;;;;;21.47;63.25;101379.56;7280314;19;151983;-58
2022/10/27 00:56:54;;;;;;;;;;;;;;;21.46;63.80;101381.53;7278304;19;152281;-58
2022/10/27 00:59:21;;;;;;;;;;;;;;;21.46;63.55;101381.53;7277627;19;153383;-58
2022/10/27 01:01:55;;;;;;;;;;;;;;;21.45;63.77;101382.66;7294207;19;153332;-58
2022/10/27 01:04:58;;;;;;;;;;;;;;;21.45;63.52;101379.00;7281293;19;152162;-58
2022/10/27 01:07:26;;;;;;;;;;;;;;;21.46;63.88;101386.31;7286200;19;151965;-58
2022/10/27 01:09:53;;;;;;;;;;;;;;;21.43;64.07;101387.78;7288216;19;152586;-58
2022/10/27 01:12:20;;;;;;;;;;;;;;;21.44;63.97;101388.63;7282193;19;153174;-58
2022/10/27 01:15:07;;;;;;;;;;;;;;;21.43;63.66;101376.53;7284148;19;152183;-58
2022/10/27 01:17:37;;;;;;;;;;;;;;;21.44;63.76;101377.38;7287358;19;152921;-58
2022/10/27 01:20:03;;;;;;;;;;;;;;;21.44;63.67;101377.38;7283631;19;154465;-58
2022/10/27 01:22:41;;;;;;;;;;;;;;;21.42;63.75;101388.06;7287826;19;151925;-58
2022/10/27 01:25:14;;;;;;;;;;;;;;;21.42;64.23;101388.06;7292458;19;153253;-58
2022/10/27 01:27:40;;;;;;;;;;;;;;;21.41;63.74;101387.22;7281943;19;152430;-58
2022/10/27 01:30:08;;;;;;;;;;;;;;;21.40;64.07;101391.16;7286528;19;152246;-58
2022/10/27 01:32:41;;;;;;;;;;;;;;;21.41;64.15;101386.38;7285310;19;153855;-58
2022/10/27 01:35:12;;;;;;;;;;;;;;;21.40;63.92;101385.53;7287193;19;151715;-58
2022/10/27 01:37:44;;;;;;;;;;;;;;;21.40;64.10;101387.53;7286867;19;153521;-58
2022/10/27 01:40:23;;;;;;;;;;;;;;;21.38;64.21;101378.56;7284386;19;154162;-58
2022/10/27 01:42:53;;;;;;;;;;;;;;;21.37;64.32;101374.09;7284018;19;152057;-59
2022/10/27 01:45:22;;;;;;;;;;;;;;;21.39;64.21;101380.25;7286304;19;154057;-58
2022/10/27 01:47:49;;;;;;;;;;;;;;;21.39;64.34;101377.44;7286363;19;153769;-59
2022/10/27 01:50:23;;;;;;;;;;;;;;;21.39;64.37;101377.44;7282415;19;152241;-59
2022/10/27 01:53:01;;;;;;;;;;;;;;;21.36;65.02;101362.00;7282988;19;154147;-58
2022/10/27 01:55:46;;;;;;;;;;;;;;;21.36;64.49;101364.81;7285395;19;153481;-58
2022/10/27 01:58:31;;;;;;;;;;;;;;;21.36;64.79;101359.19;7282256;19;152843;-57
2022/10/27 02:01:07;;;;;;;;;;;;;;;21.36;64.42;101350.75;7284513;19;153474;-58
2022/10/27 02:03:55;;;;;;;;;;;;;;;21.37;64.51;101349.63;7287049;19;152286;-58
2022/10/27 02:06:41;;;;;;;;;;;;;;;21.37;64.89;101352.44;7281496;19;152416;-59
2022/10/27 02:09:12;;;;;;;;;;;;;;;21.36;64.82;101349.91;7286875;19;153648;-58
2022/10/27 02:11:42;;;;;;;;;;;;;;;21.36;64.83;101345.13;7282366;19;152467;-59
2022/10/27 02:14:11;;;;;;;;;;;;;;;21.36;64.97;101335.84;7281189;19;153954;-60
2022/10/27 02:16:41;;;;;;;;;;;;;;;21.35;64.81;101332.22;7282118;19;152531;-58
2022/10/27 02:19:22;;;;;;;;;;;;;;;21.35;64.96;101329.41;7284965;19;153480;-60
2022/10/27 02:21:51;;;;;;;;;;;;;;;21.36;64.96;101331.06;7282837;19;152412;-60
2022/10/27 02:24:18;;;;;;;;;;;;;;;21.36;64.73;101330.25;7282728;19;153683;-60
2022/10/27 02:26:53;;;;;;;;;;;;;;;21.36;65.03;101316.19;7280187;19;153526;-59
2022/10/27 02:29:26;;;;;;;;;;;;;;;21.35;65.19;101312.53;7280848;19;153390;-59
2022/10/27 02:31:55;;;;;;;;;;;;;;;21.34;65.15;101308.06;7291579;19;152132;-58
2022/10/27 02:34:24;;;;;;;;;;;;;;;21.34;65.02;101312.88;7280986;19;153627;-58
2022/10/27 02:36:52;;;;;;;;;;;;;;;21.34;65.48;101310.88;7282481;19;152090;-58
2022/10/27 02:39:19;;;;;;;;;;;;;;;21.34;65.39;101310.06;7281825;19;152060;-58
2022/10/27 02:41:47;;;;;;;;;;;;;;;21.34;65.45;101308.06;7281080;19;153030;-59
2022/10/27 02:44:14;;;;;;;;;;;;;;;21.33;65.21;101297.97;7281522;19;152361;-59
2022/10/27 02:46:41;;;;;;;;;;;;;;;21.32;65.35;101298.25;7280367;19;154047;-59
2022/10/27 02:49:11;;;;;;;;;;;;;;;21.32;65.58;101304.72;7279812;19;153628;-59
2022/10/27 02:51:38;;;;;;;;;;;;;;;21.32;65.50;101301.91;7282748;19;152376;-58
2022/10/27 02:54:11;;;;;;;;;;;;;;;21.29;65.93;101300.56;7290402;19;153875;-58
2022/10/27 02:56:39;;;;;;;;;;;;;;;21.29;65.94;101296.91;7278341;19;152747;-58
2022/10/27 02:59:07;;;;;;;;;;;;;;;21.28;66.19;101290.44;7283408;19;153066;-58
2022/10/27 03:01:37;;;;;;;;;;;;;;;21.28;66.13;101289.63;7278675;19;152346;-58
2022/10/27 03:04:07;;;;;;;;;;;;;;;21.27;66.31;101288.78;7283513;19;152009;-58
2022/10/27 03:06:34;;;;;;;;;;;;;;;21.27;65.98;101280.34;7118723;19;3145441;-58
2022/10/27 03:09:01;;;;;;;;;;;;;;;21.27;66.01;101285.97;7282072;19;153457;-58
2022/10/27 03:11:29;;;;;;;;;;;;;;;21.27;66.43;101277.53;7281230;19;152048;-58
2022/10/27 03:13:58;;;;;;;;;;;;;;;21.26;66.21;101273.03;7278537;19;154809;-58
2022/10/27 03:16:26;;;;;;;;;;;;;;;21.26;66.54;101277.81;7290283;19;154996;-59
2022/10/27 03:18:53;;;;;;;;;;;;;;;21.26;66.33;101273.03;7285194;19;152212;-58
2022/10/27 03:21:20;;;;;;;;;;;;;;;21.25;66.55;101262.13;7283098;19;153400;-58
2022/10/27 03:23:47;;;;;;;;;;;;;;;21.26;66.46;101261.81;7283154;19;152827;-59
2022/10/27 03:26:14;;;;;;;;;;;;;;;21.27;66.70;101262.66;7282935;19;152883;-59
2022/10/27 03:28:41;;;;;;;;;;;;;;;21.25;66.79;101253.69;7275196;19;153949;-59
2022/10/27 03:31:08;;;;;;;;;;;;;;;21.26;66.64;101260.97;7283675;19;151781;-58
2022/10/27 03:33:35;;;;;;;;;;;;;;;21.25;66.45;101248.09;7283822;19;153248;-58
2022/10/27 03:36:02;;;;;;;;;;;;;;;21.25;67.17;101245.28;7282894;19;153211;-58
2022/10/27 03:38:29;;;;;;;;;;;;;;;21.26;66.62;101239.31;7289525;19;151797;-59
2022/10/27 03:40:56;;;;;;;;;;;;;;;21.26;66.72;101241.28;7280638;19;154607;-59
2022/10/27 03:43:23;;;;;;;;;;;;;;;21.26;67.02;101238.47;7279976;19;152155;-58
2022/10/27 03:45:51;;;;;;;;;;;;;;;21.26;66.72;101239.31;7284434;19;152589;-58
2022/10/27 03:48:23;;;;;;;;;;;;;;;21.26;66.43;101242.13;7278907;19;153120;-59
2022/10/27 03:50:50;;;;;;;;;;;;;;;21.26;67.02;101238.47;7283376;19;152616;-58
2022/10/27 03:53:17;;;;;;;;;;;;;;;21.26;66.86;101225.28;7281925;19;153442;-58
2022/10/27 03:55:46;;;;;;;;;;;;;;;21.27;67.15;101223.28;7281353;19;152295;-58
2022/10/27 03:58:13;;;;;;;;;;;;;;;21.27;66.92;101228.91;7278787;19;154586;-58
2022/10/27 04:00:42;;;;;;;;;;;;;;;21.28;67.13;101227.78;7290446;19;153135;-58
2022/10/27 04:03:09;;;;;;;;;;;;;;;21.29;67.47;101221.03;7283191;19;152072;-59
2022/10/27 04:05:36;;;;;;;;;;;;;;;21.30;67.75;101211.47;7282780;19;153557;-60
2022/10/27 04:08:03;;;;;;;;;;;;;;;21.31;67.72;101213.09;7280117;19;152641;-58
2022/10/27 04:10:30;;;;;;;;;;;;;;;21.28;67.37;101208.09;7283303;19;154042;-59
2022/10/27 04:12:57;;;;;;;;;;;;;;;21.26;67.50;101204.75;7278687;19;153005;-58
2022/10/27 04:15:25;;;;;;;;;;;;;;;21.19;68.56;101202.34;7280276;19;154137;-59
2022/10/27 04:17:55;;;;;;;;;;;;;;;21.25;67.26;101191.88;7281617;19;153364;-58
2022/10/27 04:20:23;;;;;;;;;;;;;;;21.27;66.89;101195.19;7289543;19;153344;-59
2022/10/27 04:22:50;;;;;;;;;;;;;;;21.20;67.47;101197.56;7283784;19;153299;-59
2022/10/27 04:25:18;;;;;;;;;;;;;;;21.23;67.30;101200.59;7281585;19;153655;-59
2022/10/27 04:27:45;;;;;;;;;;;;;;;21.22;67.42;101179.25;7278209;19;153780;-60
2022/10/27 04:30:12;;;;;;;;;;;;;;;21.22;67.36;101182.06;7281727;19;152241;-59
2022/10/27 04:32:39;;;;;;;;;;;;;;;21.21;67.35;101177.56;7283164;19;152074;-58
2022/10/27 04:35:06;;;;;;;;;;;;;;;21.19;67.42;101167.81;7280504;19;153944;-59
2022/10/27 04:37:33;;;;;;;;;;;;;;;21.18;67.45;101163.31;7281896;19;152781;-59
2022/10/27 04:40:00;;;;;;;;;;;;;;;21.16;67.59;101163.66;7281214;19;152010;-59
2022/10/27 04:42:27;;;;;;;;;;;;;;;21.13;67.99;101161.44;7284604;19;152731;-59
2022/10/27 04:44:54;;;;;;;;;;;;;;;21.16;67.38;101168.44;7281806;19;153060;-59
2022/10/27 04:47:21;;;;;;;;;;;;;;;21.16;67.52;101174.88;7278272;19;153468;-58
2022/10/27 04:49:48;;;;;;;;;;;;;;;21.16;67.74;101174.88;7280621;19;152444;-59
2022/10/27 04:52:16;;;;;;;;;;;;;;;21.17;67.69;101170.06;7281897;19;153783;-59
2022/10/27 04:54:43;;;;;;;;;;;;;;;21.17;67.55;101176.53;7282096;19;153285;-58
2022/10/27 04:57:10;;;;;;;;;;;;;;;21.18;67.78;101172.59;7278768;19;153256;-58
2022/10/27 04:59:37;;;;;;;;;;;;;;;21.18;67.46;101166.97;7280249;19;153284;-59
2022/10/27 05:02:04;;;;;;;;;;;;;;;21.18;67.84;101169.78;7282656;19;153705;-60
2022/10/27 05:04:31;;;;;;;;;;;;;;;21.18;67.35;101166.13;7288998;19;152397;-60
2022/10/27 05:06:58;;;;;;;;;;;;;;;21.18;67.37;101149.25;7279330;19;152564;-60
2022/10/27 05:09:26;;;;;;;;;;;;;;;21.19;67.69;101145.31;7279282;19;151944;-60
2022/10/27 05:11:53;;;;;;;;;;;;;;;21.18;67.56;101138.88;7279432;19;154226;-60
2022/10/27 05:14:20;;;;;;;;;;;;;;;21.17;68.10;101142.81;7279544;19;153242;-59
2022/10/27 05:16:47;;;;;;;;;;;;;;;21.19;67.56;101145.31;7281546;19;154367;-60
2022/10/27 05:19:14;;;;;;;;;;;;;;;21.20;67.79;101135.75;7281070;19;153854;-60
2022/10/27 05:21:41;;;;;;;;;;;;;;;21.20;67.68;101130.13;7280258;19;153442;-59
2022/10/27 05:24:09;;;;;;;;;;;;;;;21.20;67.61;101124.50;7278313;19;152929;-59
2022/10/27 05:26:36;;;;;;;;;;;;;;;21.20;67.66;101116.91;7283466;19;152730;-59
2022/10/27 05:29:03;;;;;;;;;;;;;;;21.20;68.22;101125.34;7278735;19;152450;-59
2022/10/27 05:31:30;;;;;;;;;;;;;;;21.20;67.93;101114.13;7279972;19;153515;-59
2022/10/27 05:33:57;;;;;;;;;;;;;;;21.21;67.83;101114.94;7278788;19;152984;-60
2022/10/27 05:36:25;;;;;;;;;;;;;;;21.20;67.68;101110.47;7280245;19;152112;-59
2022/10/27 05:38:53;;;;;;;;;;;;;;;21.20;68.09;101091.63;7281104;19;153073;-58
2022/10/27 05:41:20;;;;;;;;;;;;;;;21.20;68.23;101090.78;7277337;19;154524;-59
2022/10/27 05:43:47;;;;;;;;;;;;;;;21.20;68.28;101091.63;7279063;19;153478;-59
2022/10/27 05:46:14;;;;;;;;;;;;;;;21.21;68.00;101082.03;7282880;19;152360;-58
2022/10/27 05:48:41;;;;;;;;;;;;;;;21.20;68.33;101082.38;7292223;19;154814;-58
2022/10/27 05:51:08;;;;;;;;;;;;;;;21.20;68.52;101074.78;7285546;19;153874;-59
2022/10/27 05:53:35;;;;;;;;;;;;;;;21.21;68.59;101047.50;7285022;19;154129;-59
2022/10/27 05:56:02;;;;;;;;;;;;;;;21.20;68.72;101045.84;7286045;19;154077;-59
2022/10/27 05:58:29;;;;;;;;;;;;;;;21.17;68.43;101058.50;7283404;19;152594;-59
2022/10/27 06:00:58;;;;;;;;;;;;;;;21.18;68.60;101062.16;7285140;19;153940;-59
2022/10/27 06:03:25;;;;;;;;;;;;;;;21.20;68.88;101065.50;7286485;19;153187;-59
2022/10/27 06:05:52;;;;;;;;;;;;;;;21.19;68.85;101064.66;7285363;19;153391;-59
2022/10/27 06:08:19;;;;;;;;;;;;;;;21.21;68.38;101067.19;7282609;19;152950;-59
2022/10/27 06:10:46;;;;;;;;;;;;;;;21.21;68.90;101059.56;7293660;19;152585;-59
2022/10/27 06:13:13;;;;;;;;;;;;;;;21.20;69.02;101066.34;7280221;19;154176;-59
2022/10/27 06:15:40;;;;;;;;;;;;;;;21.19;69.62;101070.28;7284600;19;152334;-59
2022/10/27 06:18:27;;;;;;;;;;;;;;;21.21;69.41;101076.41;7284456;19;152833;-59
2022/10/27 06:20:54;;;;;;;;;;;;;;;21.23;70.07;101092.97;7285471;19;154203;-59
2022/10/27 06:23:21;;;;;;;;;;;;;;;21.26;72.07;101112.03;7284865;19;152622;-59
2022/10/27 06:25:50;;;;;;;;;;;;;;;21.30;71.85;101130.75;7286693;19;153812;-59
2022/10/27 06:28:21;;;;;;;;;;;;;;;21.36;71.82;101130.66;7279782;19;153353;-58
2022/10/27 06:30:49;;;;;;;;;;;;;;;21.41;72.40;101136.19;7289295;19;151998;-59
2022/10/27 06:33:16;;;;;;;;;;;;;;;21.46;72.58;101119.25;7285068;19;152802;-59
2022/10/27 06:35:44;;;;;;;;;;;;;;;21.50;73.24;101125.91;7284415;19;152800;-59
2022/10/27 06:38:15;;;;;;;;;;;;;;;21.54;73.91;101124.97;7284661;19;153565;-59
2022/10/27 06:40:43;;;;;;;;;;;;;;;21.58;73.43;101131.63;7284273;19;154047;-59
2022/10/27 06:43:11;;;;;;;;;;;;;;;21.62;73.40;101120.63;7279827;19;152291;-59
2022/10/27 06:45:40;;;;;;;;;;;;;;;21.65;73.75;101118.00;7284412;19;152686;-59
2022/10/27 06:48:09;;;;;;;;;;;;;;;21.69;73.12;101115.41;7283175;19;153241;-59
2022/10/27 06:50:36;;;;;;;;;;;;;;;21.72;72.95;101103.53;7282872;19;151988;-59
2022/10/27 06:53:03;;;;;;;;;;;;;;;21.76;72.71;101100.94;7292078;19;152549;-59
2022/10/27 06:55:30;;;;;;;;;;;;;;;21.78;72.56;101098.63;7284681;19;153360;-59
2022/10/27 06:57:57;;;;;;;;;;;;;;;21.80;72.72;101088.75;7278557;19;153981;-59
2022/10/27 07:00:24;;;;;;;;;;;;;;;21.83;72.47;101084.47;7283122;19;154065;-58
2022/10/27 07:02:50;;;;;;;;;;;;;;;21.86;72.44;101083.81;7283057;19;153065;-59
2022/10/27 07:05:18;;;;;;;;;;;;;;;21.88;72.30;101068.31;7284278;19;153359;-59
2022/10/27 07:07:53;;;;;;;;;;;;;;;21.90;71.87;101062.34;7280059;19;153656;-59
2022/10/27 07:10:21;;;;;;;;;;;;;;;21.92;71.79;101057.25;7283239;19;153976;-59
2022/10/27 07:12:58;;;;;;;;;;;;;;;21.94;71.37;101044.56;7281366;19;153433;-60
2022/10/27 07:15:27;;;;;;;;;;;;;;;21.94;71.27;101044.56;7290619;19;154081;-59
2022/10/27 07:17:58;;;;;;;;;;;;;;;21.97;71.08;101034.66;7284848;19;153413;-59
2022/10/27 07:20:27;;;;;;;;;;;;;;;21.98;71.06;101041.97;7283026;19;154438;-59
2022/10/27 07:22:55;;;;;;;;;;;;;;;21.99;71.09;101050.06;7284092;19;152758;-60
2022/10/27 07:25:22;;;;;;;;;;;;;;;22.01;70.66;101047.78;7283685;19;152943;-59
2022/10/27 07:27:55;;;;;;;;;;;;;;;22.03;70.39;101041.88;7279775;19;153752;-59
2022/10/27 07:30:24;;;;;;;;;;;;;;;22.04;70.17;101030.25;7281988;19;152265;-58
2022/10/27 07:32:51;;;;;;;;;;;;;;;22.05;70.44;101028.28;7284007;19;153304;-59
2022/10/27 07:35:18;;;;;;;;;;;;;;;22.06;70.37;101030.81;7280475;19;154217;-59
2022/10/27 07:37:45;;;;;;;;;;;;;;;22.07;70.27;101029.66;7290849;19;152738;-59
2022/10/27 07:40:14;;;;;;;;;;;;;;;22.08;70.30;101027.66;7281584;19;154411;-59
2022/10/27 07:42:44;;;;;;;;;;;;;;;22.09;69.86;101029.31;7280866;19;152490;-59
2022/10/27 07:45:12;;;;;;;;;;;;;;;22.10;70.35;101036.63;7283748;19;153657;-59
2022/10/27 07:47:46;;;;;;;;;;;;;;;22.11;70.67;101044.75;7280761;19;153505;-59
2022/10/27 07:50:15;;;;;;;;;;;;;;;22.12;70.40;101049.22;7282561;19;152078;-59
2022/10/27 07:52:43;;;;;;;;;;;;;;;22.14;70.19;101043.28;7283598;19;151921;-59
2022/10/27 07:55:10;;;;;;;;;;;;;;;22.14;70.09;101034.84;7278329;19;153202;-59
2022/10/27 07:57:41;;;;;;;;;;;;;;;22.14;70.22;101046.09;7277817;19;152326;-59
2022/10/27 08:00:09;;;;;;;;;;;;;;;22.14;70.35;101044.09;7287807;19;153283;-59
2022/10/27 08:02:36;;;;;;;;;;;;;;;22.14;70.15;101055.38;7282277;19;151903;-59
2022/10/27 08:05:03;;;;;;;;;;;;;;;22.16;69.79;101053.09;7283362;19;152686;-59
2022/10/27 08:07:30;;;;;;;;;;;;;;;22.15;70.00;101050.56;7282121;19;153973;-59
2022/10/27 08:10:16;;;;;;;;;;;;;;;22.16;69.82;101046.63;7277722;19;152394;-59
2022/10/27 08:12:43;;;;;;;;;;;;;;;22.16;69.73;101057.88;7278801;19;151760;-59
2022/10/27 08:15:11;;;;;;;;;;;;;;;22.14;70.08;101049.75;7282351;19;153626;-59
2022/10/27 08:17:39;;;;;;;;;;;;;;;22.16;69.75;101063.50;7282978;19;152567;-59
2022/10/27 08:20:07;;;;;;;;;;;;;;;22.15;69.74;101057.03;7282406;19;152561;-59
2022/10/27 08:22:34;;;;;;;;;;;;;;;22.15;69.91;101051.41;7290958;19;152341;-60
2022/10/27 08:25:01;;;;;;;;;;;;;;;22.14;69.89;101037.66;7281936;19;153069;-60
2022/10/27 08:27:34;;;;;;;;;;;;;;;22.14;70.04;101046.91;7276430;19;154108;-59
2022/10/27 08:30:01;;;;;;;;;;;;;;;22.15;70.19;101048.59;7278728;19;152815;-59
2022/10/27 08:32:28;;;;;;;;;;;;;;;22.15;69.86;101042.13;7284006;19;152808;-59
2022/10/27 08:34:55;;;;;;;;;;;;;;;22.14;70.13;101052.56;7279955;19;153524;-60
2022/10/27 08:37:21;;;;;;;;;;;;;;;22.14;70.28;101058.19;7281811;19;152533;-59
2022/10/27 08:39:48;;;;;;;;;;;;;;;22.12;70.25;101057.66;7280881;19;153781;-59
2022/10/27 08:42:36;;;;;;;;;;;;;;;22.13;70.15;101062.13;7286600;19;154067;-59
2022/10/27 08:45:19;;;;;;;;;;;;;;;22.15;69.70;101068.28;7280258;19;152799;-58
2022/10/27 08:47:46;;;;;;;;;;;;;;;22.13;70.17;101072.56;7280696;19;153440;-59
2022/10/27 08:50:18;;;;;;;;;;;;;;;22.13;70.20;101064.13;7281844;19;152095;-59
2022/10/27 08:52:50;;;;;;;;;;;;;;;22.11;70.14;101078.53;7281718;19;153565;-59
2022/10/27 08:55:21;;;;;;;;;;;;;;;22.14;69.94;101069.44;7282724;19;154321;-59
2022/10/27 08:58:04;;;;;;;;;;;;;;;22.15;69.46;101059.84;7276167;19;153134;-59
2022/10/27 09:00:37;;;;;;;;;;;;;;;22.15;69.62;101071.09;7281395;19;153452;-58
2022/10/27 09:03:25;;;;;;;;;;;;;;;22.16;69.79;101074.75;7280163;19;153364;-58
2022/10/27 09:06:03;;;;;;;;;;;;;;;22.13;69.61;101067.75;7282119;19;152447;-58
2022/10/27 09:08:30;;;;;;;;;;;;;;;22.16;69.50;101083.19;7276218;19;153518;-58
2022/10/27 09:11:08;;;;;;;;;;;;;;;22.15;69.68;101084.34;7278143;19;152045;-58
2022/10/27 09:13:53;;;;;;;;;;;;;;;22.15;69.99;101089.97;7279369;19;153995;-58
2022/10/27 09:16:28;;;;;;;;;;;;;;;22.15;69.69;101081.53;7276097;19;152996;-58
2022/10/27 09:18:56;;;;;;;;;;;;;;;22.17;69.37;101090.47;7280495;19;152065;-58
2022/10/27 09:21:24;;;;;;;;;;;;;;;22.18;69.56;101094.97;7279952;19;153648;-58
2022/10/27 09:23:52;;;;;;;;;;;;;;;22.19;69.05;101096.63;7286250;19;154314;-58
2022/10/27 09:26:22;;;;;;;;;;;;;;;22.17;69.09;101111.00;7287566;19;153181;-58
2022/10/27 09:28:51;;;;;;;;;;;;;;;22.22;68.75;101106.41;7291199;19;153380;-58
2022/10/27 09:31:32;;;;;;;;;;;;;;;22.25;68.11;101106.63;7285785;19;151682;-59
2022/10/27 09:34:04;;;;;;;;;;;;;;;22.21;68.67;101097.16;7287258;19;153081;-58
2022/10/27 09:36:31;;;;;;;;;;;;;;;22.20;68.92;101100.28;7284758;19;154347;-59
2022/10/27 09:38:59;;;;;;;;;;;;;;;22.20;68.66;101094.66;7285056;19;152258;-59
2022/10/27 09:41:25;;;;;;;;;;;;;;;22.20;68.92;101101.13;7286104;19;153560;-58
2022/10/27 09:43:54;;;;;;;;;;;;;;;22.19;67.96;101096.63;7284277;19;154458;-57
2022/10/27 09:46:26;;;;;;;;;;;;;;;22.18;67.41;101086.50;7283102;19;152670;-58
2022/10/27 09:49:04;;;;;;;;;;;;;;;22.18;67.09;101100.59;7285495;19;153273;-58
2022/10/27 09:51:41;;;;;;;;;;;;;;;22.16;67.02;101100.09;7288661;19;153087;-58
2022/10/27 09:54:26;;;;;;;;;;;;;;;22.14;67.21;101096.75;7285947;19;152718;-58
2022/10/27 09:56:54;;;;;;;;;;;;;;;22.14;66.67;101100.41;7282303;19;153728;-58
2022/10/27 09:59:21;;;;;;;;;;;;;;;22.13;66.90;101103.50;7283993;19;152717;-58
2022/10/27 10:01:55;;;;;;;;;;;;;;;22.11;66.57;101088.94;7287989;19;153319;-58
2022/10/27 10:04:30;;;;;;;;;;;;;;;22.12;66.27;101097.06;7283584;19;153711;-58
2022/10/27 10:06:57;;;;;;;;;;;;;;;22.12;66.06;101090.63;7286565;19;151829;-58
2022/10/27 10:09:24;;;;;;;;;;;;;;;22.09;65.62;101094.88;7285835;19;153201;-58
2022/10/27 10:12:16;;;;;;;;;;;;;;;22.07;65.42;101108.44;7278206;19;152742;-58
2022/10/27 10:14:49;;;;;;;;;;;;;;;22.09;65.54;101120.19;7291741;19;154220;-58
2022/10/27 10:17:25;;;;;;;;;;;;;;;22.03;65.78;101101.75;7285684;19;154286;-59
2022/10/27 10:19:53;;;;;;;;;;;;;;;22.01;65.69;101106.03;7284159;19;153010;-59
2022/10/27 10:22:30;;;;;;;;;;;;;;;21.97;66.03;101110.63;7285864;19;154293;-59
2022/10/27 10:24:59;;;;;;;;;;;;;;;21.94;66.09;101103.63;7285456;19;152220;-59
2022/10/27 10:27:31;;;;;;;;;;;;;;;21.94;66.00;101111.28;7284165;19;152437;-59
2022/10/27 10:30:22;;;;;;;;;;;;;;;21.93;66.43;101118.03;7284060;19;152974;-59
2022/10/27 10:33:01;;;;;;;;;;;;;;;21.93;66.36;101109.59;7283902;19;153283;-59
2022/10/27 10:35:42;;;;;;;;;;;;;;;21.92;66.25;101121.97;7293134;19;151980;-59
2022/10/27 10:38:33;;;;;;;;;;;;;;;21.92;66.28;101120.00;7283673;19;153831;-59
2022/10/27 10:41:04;;;;;;;;;;;;;;;21.92;66.66;101124.78;7285119;19;152145;-59
2022/10/27 10:43:39;;;;;;;;;;;;;;;21.91;66.92;101132.38;7282283;19;152519;-58
2022/10/27 10:46:15;;;;;;;;;;;;;;;21.92;66.99;101136.03;7284930;19;152467;-58
2022/10/27 10:48:54;;;;;;;;;;;;;;;21.91;67.06;101131.53;7286229;19;152679;-58
2022/10/27 10:51:23;;;;;;;;;;;;;;;21.92;67.03;101147.28;7284434;19;153426;-59
2022/10/27 10:54:04;;;;;;;;;;;;;;;21.92;67.02;101136.03;7286051;19;152474;-59
2022/10/27 10:56:41;;;;;;;;;;;;;;;21.92;67.06;101136.03;7283114;19;152059;-59
2022/10/27 10:59:08;;;;;;;;;;;;;;;21.94;67.42;101130.97;7292493;19;152869;-58
2022/10/27 11:01:42;;;;;;;;;;;;;;;21.89;67.48;101140.31;7284994;19;152410;-59
2022/10/27 11:04:11;;;;;;;;;;;;;;;21.84;66.51;101119.88;7286975;19;152189;-59
2022/10/27 11:06:54;;;;;;;;;;;;;;;21.83;66.31;101119.06;7279665;19;153048;-59
2022/10/27 11:09:24;;;;;;;;;;;;;;;21.78;66.92;101121.13;7285128;19;152354;-59
2022/10/27 11:11:52;;;;;;;;;;;;;;;21.73;66.40;101120.09;7282273;19;153475;-59
2022/10/27 11:14:20;;;;;;;;;;;;;;;21.71;66.96;101118.75;7283089;19;153560;-59
2022/10/27 11:16:56;;;;;;;;;;;;;;;21.67;67.04;101112.06;7284954;19;151810;-59
2022/10/27 11:19:27;;;;;;;;;;;;;;;21.65;67.33;101112.41;7284514;19;152397;-59
2022/10/27 11:22:17;;;;;;;;;;;;;;;21.62;67.39;101115.81;7291582;19;155176;-58
2022/10/27 11:24:44;;;;;;;;;;;;;;;21.61;67.67;101107.69;7282994;19;152784;-59
2022/10/27 11:27:16;;;;;;;;;;;;;;;21.62;67.90;101120.63;7281684;19;153995;-59
2022/10/27 11:30:03;;;;;;;;;;;;;;;21.62;68.16;101113.00;7278866;19;152223;-59
2022/10/27 11:33:08;;;;;;;;;;;;;;;21.58;68.73;101113.94;7281020;19;152502;-59
2022/10/27 11:35:53;;;;;;;;;;;;;;;21.58;68.32;101125.19;7282388;19;152710;-59
2022/10/27 11:38:26;;;;;;;;;;;;;;;21.58;68.25;101114.75;7283679;19;151837;-59
2022/10/27 11:41:20;;;;;;;;;;;;;;;21.60;69.09;101115.31;7280779;19;152795;-59
2022/10/27 11:43:47;;;;;;;;;;;;;;;21.57;68.99;101103.84;7279516;19;154527;-59
2022/10/27 11:46:25;;;;;;;;;;;;;;;21.59;68.55;101112.78;7290131;19;151845;-59
2022/10/27 11:48:57;;;;;;;;;;;;;;;21.61;69.20;101110.53;7282332;19;153817;-59
2022/10/27 11:51:27;;;;;;;;;;;;;;;21.60;69.22;101120.09;7282204;19;152060;-59
2022/10/27 11:53:55;;;;;;;;;;;;;;;21.64;69.36;101121.13;7284459;19;153949;-62
2022/10/27 11:56:31;;;;;;;;;;;;;;;21.63;68.98;101125.06;7270499;19;154153;-59
2022/10/27 11:59:16;;;;;;;;;;;;;;;21.60;69.18;101120.09;7265344;19;152550;-59
2022/10/27 12:01:43;;;;;;;;;;;;;;;21.60;69.31;101126.56;7273744;19;154182;-59
2022/10/27 12:04:33;;;;;;;;;;;;;;;21.62;69.17;101127.06;7282522;19;154227;-60
2022/10/27 12:07:01;;;;;;;;;;;;;;;21.66;69.04;101133.75;7280489;19;152142;-60
2022/10/27 12:09:46;;;;;;;;;;;;;;;21.67;68.90;101134.56;7288680;19;153812;-59
2022/10/27 12:12:25;;;;;;;;;;;;;;;21.65;68.84;101137.69;7278765;19;152104;-59
2022/10/27 12:15:07;;;;;;;;;;;;;;;21.65;69.08;101134.06;7281642;19;152169;-59
2022/10/27 12:17:52;;;;;;;;;;;;;;;21.65;68.74;101140.50;7281435;19;154405;-59
2022/10/27 12:20:32;;;;;;;;;;;;;;;21.67;68.69;101143.00;7282707;19;152297;-59
2022/10/27 12:23:02;;;;;;;;;;;;;;;21.67;68.37;101157.88;7282394;19;152811;-59
2022/10/27 12:25:35;;;;;;;;;;;;;;;21.68;68.28;101142.69;7281096;19;152069;-59
2022/10/27 12:28:04;;;;;;;;;;;;;;;21.69;68.37;101144.38;7278457;19;152595;-59
2022/10/27 12:30:35;;;;;;;;;;;;;;;21.70;68.20;101142.38;7281140;19;153295;-59
2022/10/27 12:33:08;;;;;;;;;;;;;;;21.70;68.25;101143.22;7288515;19;153246;-59
2022/10/27 12:35:48;;;;;;;;;;;;;;;21.70;68.20;101137.59;7281429;19;153494;-60
2022/10/27 12:38:15;;;;;;;;;;;;;;;21.72;68.27;101140.09;7280321;19;153012;-59
2022/10/27 12:40:50;;;;;;;;;;;;;;;21.72;67.76;101145.72;7282162;19;152145;-59
2022/10/27 12:43:17;;;;;;;;;;;;;;;21.72;67.85;101143.72;7277495;19;152594;-59
2022/10/27 12:45:46;;;;;;;;;;;;;;;21.71;68.32;101147.69;7280253;19;154526;-59